Terminal Aerodrome Forecast
Issued by NWS Wilmington, OH

Current Version | Previous Version | Graphics & Text | Print | Product List | Glossary On
Versions: 1 2 3 4 5 6 7 8 9 10 11 12 13 14 15 16 17 18 19 20 21
772
FTUS41 KILN 282330
TAFILN
TAF
KILN 282330Z 2900/2924 01008KT P6SM OVC018
     FM291400 05006KT P6SM BKN020
     FM291700 05006KT P6SM BKN040
     FM292100 06008KT P6SM FEW060 SCT250=

USA.gov is the U.S. government's official web portal to all federal, state and local government web resources and services.